Overview Statistics Trail Chart Weather Telemetry Raw packets
 

This is the latest recevied weather packets stored in our database for station/object WA6ODQ-13. If no packets are shown the sender has not sent any weather packets the latest 10 day(s).

<< 16 17 18 19 20 21 22 >>
Time Temp. Humidity Pressure Rain* Wind** Luminosity Snow
1788554572 24.44° C 49% 1011.7 hPa 0 mm - 421 W/m² -
1788554263 23.89° C 51% 1011.7 hPa 0 mm - 311 W/m² -
1788553959 23.33° C 51% 1011.7 hPa 0 mm - 306 W/m² -
1788553655 22.78° C 53% 1011.7 hPa 0 mm - 207 W/m² -
1788553351 23.89° C 52% 1011.6 hPa 0 mm - 177 W/m² -
1788553063 23.89° C 52% 1011.7 hPa 0 mm - 198 W/m² -
1788552740 23.33° C 52% 1011.8 hPa 0 mm - 436 W/m² -
1788552435 22.78° C 54% 1011.7 hPa 0 mm - 167 W/m² -
1788552129 23.33° C 52% 1011.7 hPa 0 mm - 170 W/m² -
1788551828 23.89° C 53% 1012 hPa 0 mm - 742 W/m² -
1788551522 23.33° C 54% 1011.8 hPa 0 mm - 366 W/m² -
1788551222 22.78° C 56% 1011.8 hPa 0 mm - 195 W/m² -
1788550916 23.33° C 56% 1011.8 hPa 0 mm - 139 W/m² -
1788550611 23.33° C 55% 1011.9 hPa 0 mm - 216 W/m² -
1788550308 22.22° C 57% 1012 hPa 0 mm - 218 W/m² -
1788550008 24.44° C 54% 1012 hPa 0 mm - 195 W/m² -
1788549703 24.44° C 52% 1012.2 hPa 0 mm - 210 W/m² -
1788549400 23.89° C 52% 1012.1 hPa 0 mm - 646 W/m² -
1788549095 22.78° C 56% 1012.2 hPa 0 mm - 253 W/m² -
1788548791 22.78° C 57% 1012.2 hPa 0 mm - 188 W/m² -
1788548487 22.78° C 57% 1012.2 hPa 0 mm - 162 W/m² -
1788548184 24.44° C 53% 1012 hPa 0 mm - 168 W/m² -
1788547906 23.89° C 55% 1012.3 hPa 0 mm - 230 W/m² -
1788547577 22.78° C 57% 1012.3 hPa 0 mm - 189 W/m² -
1788547272 24.44° C 53% 1012.2 hPa 0 mm - 707 W/m² -

* Rain latest hour (hover to see other rain measurements)
** Current wind speed in m/s (hover to see current wind gust speed)